sensor_id;sensor_type;location;lat;lon;timestamp;temperature;humidity
6954;DHT22;3516;47.980;8.808;2023-07-29T05:05:32;16.60;99.90
6954;DHT22;3516;47.980;8.808;2023-07-29T05:07:58;16.80;99.90
6954;DHT22;3516;47.980;8.808;2023-07-29T05:10:25;17.40;99.90
6954;DHT22;3516;47.980;8.808;2023-07-29T05:12:52;17.40;99.90
6954;DHT22;3516;47.980;8.808;2023-07-29T05:15:18;17.40;99.90
6954;DHT22;3516;47.980;8.808;2023-07-29T05:17:45;17.40;99.90
6954;DHT22;3516;47.980;8.808;2023-07-29T05:20:12;17.30;99.90
6954;DHT22;3516;47.980;8.808;2023-07-29T05:22:40;17.30;99.90
6954;DHT22;3516;47.980;8.808;2023-07-29T05:25:07;17.20;99.90
6954;DHT22;3516;47.980;8.808;2023-07-29T05:27:34;17.10;99.90
6954;DHT22;3516;47.980;8.808;2023-07-29T05:30:01;17.20;99.90
6954;DHT22;3516;47.980;8.808;2023-07-29T05:32:28;17.50;99.90
6954;DHT22;3516;47.980;8.808;2023-07-29T05:34:55;18.30;99.90
6954;DHT22;3516;47.980;8.808;2023-07-29T05:37:21;18.60;99.90
6954;DHT22;3516;47.980;8.808;2023-07-29T05:39:49;19.00;99.90
6954;DHT22;3516;47.980;8.808;2023-07-29T05:42:16;19.50;99.90
6954;DHT22;3516;47.980;8.808;2023-07-29T05:44:43;20.40;99.90
6954;DHT22;3516;47.980;8.808;2023-07-29T05:47:10;21.40;99.90
6954;DHT22;3516;47.980;8.808;2023-07-29T05:49:36;22.30;99.90
6954;DHT22;3516;47.980;8.808;2023-07-29T05:52:03;22.90;99.90
6954;DHT22;3516;47.980;8.808;2023-07-29T05:54:30;23.40;99.90
6954;DHT22;3516;47.980;8.808;2023-07-29T05:56:58;23.80;99.90
6954;DHT22;3516;47.980;8.808;2023-07-29T05:59:25;24.20;99.90
6954;DHT22;3516;47.980;8.808;2023-07-29T06:01:55;24.70;99.90
6954;DHT22;3516;47.980;8.808;2023-07-29T06:04:22;24.90;99.90
6954;DHT22;3516;47.980;8.808;2023-07-29T06:06:49;24.50;99.90
6954;DHT22;3516;47.980;8.808;2023-07-29T06:09:16;24.80;99.90
6954;DHT22;3516;47.980;8.808;2023-07-29T06:11:42;25.10;99.90
6954;DHT22;3516;47.980;8.808;2023-07-29T06:14:10;24.60;99.90
6954;DHT22;3516;47.980;8.808;2023-07-29T06:16:37;24.40;99.90
6954;DHT22;3516;47.980;8.808;2023-07-29T06:19:04;24.80;99.90
6954;DHT22;3516;47.980;8.808;2023-07-29T06:21:30;25.40;99.90
6954;DHT22;3516;47.980;8.808;2023-07-29T06:23:57;26.40;99.90
6954;DHT22;3516;47.980;8.808;2023-07-29T06:26:24;27.50;99.90
6954;DHT22;3516;47.980;8.808;2023-07-29T06:28:51;29.00;99.90
6954;DHT22;3516;47.980;8.808;2023-07-29T06:31:19;30.10;99.90
6954;DHT22;3516;47.980;8.808;2023-07-29T06:33:46;31.40;99.90
6954;DHT22;3516;47.980;8.808;2023-07-29T06:36:12;33.10;99.90
6954;DHT22;3516;47.980;8.808;2023-07-29T06:38:39;34.40;99.90
6954;DHT22;3516;47.980;8.808;2023-07-29T06:41:07;35.50;94.80
6954;DHT22;3516;47.980;8.808;2023-07-29T06:43:34;35.50;90.30
6954;DHT22;3516;47.980;8.808;2023-07-29T06:46:00;34.50;90.50
6954;DHT22;3516;47.980;8.808;2023-07-29T06:48:28;33.20;93.20
6954;DHT22;3516;47.980;8.808;2023-07-29T06:50:55;31.90;99.90
6954;DHT22;3516;47.980;8.808;2023-07-29T06:53:26;30.50;99.90
6954;DHT22;3516;47.980;8.808;2023-07-29T06:55:52;29.70;99.90
6954;DHT22;3516;47.980;8.808;2023-07-29T06:58:19;29.10;99.90
6954;DHT22;3516;47.980;8.808;2023-07-29T07:00:46;28.70;99.90
6954;DHT22;3516;47.980;8.808;2023-07-29T07:27:51;29.70;99.90
6954;DHT22;3516;47.980;8.808;2023-07-29T07:30:18;29.80;99.90
6954;DHT22;3516;47.980;8.808;2023-07-29T07:32:44;30.70;99.90
6954;DHT22;3516;47.980;8.808;2023-07-29T07:35:11;30.70;99.90
6954;DHT22;3516;47.980;8.808;2023-07-29T07:37:38;30.60;99.90
6954;DHT22;3516;47.980;8.808;2023-07-29T07:40:07;31.10;99.90
6954;DHT22;3516;47.980;8.808;2023-07-29T07:42:34;31.80;99.90
6954;DHT22;3516;47.980;8.808;2023-07-29T07:45:01;32.50;99.90
6954;DHT22;3516;47.980;8.808;2023-07-29T07:47:27;33.10;99.90
6954;DHT22;3516;47.980;8.808;2023-07-29T07:49:54;33.20;99.90
6954;DHT22;3516;47.980;8.808;2023-07-29T07:52:21;32.50;99.90
6954;DHT22;3516;47.980;8.808;2023-07-29T07:54:51;31.60;99.90
6954;DHT22;3516;47.980;8.808;2023-07-29T07:57:20;30.20;99.90
6954;DHT22;3516;47.980;8.808;2023-07-29T07:59:47;29.10;99.90
6954;DHT22;3516;47.980;8.808;2023-07-29T08:02:14;28.20;99.90
6954;DHT22;3516;47.980;8.808;2023-07-29T08:04:41;27.50;99.90
6954;DHT22;3516;47.980;8.808;2023-07-29T08:07:07;26.80;99.90
6954;DHT22;3516;47.980;8.808;2023-07-29T08:09:34;26.20;99.90
